createdAt,value
2017-09-16T00:00:53.710Z,7.20
2017-09-16T00:03:21.138Z,7.03
2017-09-16T00:05:48.556Z,6.50
2017-09-16T00:08:15.978Z,7.47
2017-09-16T00:10:43.409Z,6.43
2017-09-16T00:13:11.600Z,6.80
2017-09-16T00:15:39.803Z,6.80
2017-09-16T00:18:07.220Z,6.70
2017-09-16T00:20:35.407Z,6.90
2017-09-16T00:23:02.891Z,6.20
2017-09-16T00:25:30.300Z,6.60
2017-09-16T00:27:57.721Z,6.63
2017-09-16T00:30:25.174Z,6.97
2017-09-16T00:32:52.584Z,6.77
2017-09-16T00:35:20.790Z,7.03
2017-09-16T00:37:48.209Z,5.80
2017-09-16T00:40:16.404Z,5.50
2017-09-16T00:42:43.825Z,5.53
2017-09-16T00:45:11.260Z,4.80
2017-09-16T00:47:38.677Z,4.47
2017-09-16T00:50:06.129Z,5.03
2017-09-16T00:52:34.304Z,5.10
2017-09-16T00:55:01.727Z,5.10
2017-09-16T00:57:29.152Z,5.80
2017-09-16T00:59:57.340Z,5.10
2017-09-16T01:02:24.773Z,5.00
2017-09-16T01:04:52.219Z,6.87
2017-09-16T01:07:19.644Z,6.97
2017-09-16T01:09:47.833Z,6.03
2017-09-16T01:12:15.273Z,7.90
2017-09-16T01:14:43.465Z,6.83
2017-09-16T01:17:10.898Z,7.13
2017-09-16T01:19:38.326Z,6.80
2017-09-16T01:22:05.761Z,7.80
2017-09-16T01:24:33.176Z,7.00
2017-09-16T01:27:01.386Z,8.83
2017-09-16T01:29:28.817Z,12.00
2017-09-16T01:31:56.254Z,10.07
2017-09-16T01:34:23.687Z,13.43
2017-09-16T01:36:51.120Z,12.10
2017-09-16T01:39:18.552Z,17.57
2017-09-16T01:41:45.984Z,16.30
2017-09-16T01:44:14.184Z,12.83
2017-09-16T01:46:41.616Z,12.70
2017-09-16T01:49:09.817Z,12.87
2017-09-16T01:51:37.261Z,12.30
2017-09-16T01:54:05.448Z,12.27
2017-09-16T01:56:32.881Z,12.07
2017-09-16T01:59:01.081Z,12.80
2017-09-16T02:01:28.517Z,11.27
2017-09-16T02:03:56.706Z,11.50
2017-09-16T02:06:24.140Z,10.00
2017-09-16T02:08:52.341Z,10.17
2017-09-16T02:11:19.769Z,9.97
2017-09-16T02:13:47.966Z,8.70
2017-09-16T02:16:15.392Z,8.93
2017-09-16T02:18:42.813Z,9.90
2017-09-16T02:21:10.286Z,8.83
2017-09-16T02:23:37.711Z,9.17
2017-09-16T02:26:05.140Z,8.43
2017-09-16T02:28:33.333Z,8.83
2017-09-16T02:31:00.769Z,8.50
2017-09-16T02:33:28.956Z,8.07
2017-09-16T02:35:56.385Z,9.47
2017-09-16T02:38:23.807Z,9.27
2017-09-16T02:40:51.242Z,9.70
2017-09-16T02:43:18.661Z,6.83
2017-09-16T02:45:46.859Z,6.80
2017-09-16T02:48:14.272Z,7.37
2017-09-16T02:50:41.703Z,5.60
2017-09-16T02:53:09.129Z,8.10
2017-09-16T02:55:36.557Z,6.93
2017-09-16T02:58:03.985Z,6.20
2017-09-16T03:00:31.414Z,6.83
2017-09-16T03:02:58.845Z,7.93
2017-09-16T03:05:27.023Z,8.13
2017-09-16T03:07:54.457Z,7.43
2017-09-16T03:10:21.876Z,6.77
2017-09-16T03:12:49.317Z,9.00
2017-09-16T03:15:16.732Z,8.00
2017-09-16T03:17:44.930Z,8.00
2017-09-16T03:20:12.374Z,6.20
2017-09-16T03:22:40.582Z,6.53
2017-09-16T03:25:08.006Z,6.47
2017-09-16T03:27:36.234Z,8.27
2017-09-16T03:30:03.641Z,6.77
2017-09-16T03:32:31.081Z,7.70
2017-09-16T03:34:59.263Z,6.80
2017-09-16T03:37:27.456Z,7.77
2017-09-16T03:39:54.887Z,6.60
2017-09-16T03:42:23.086Z,7.10
2017-09-16T03:44:51.404Z,6.50
2017-09-16T03:47:18.842Z,7.97
2017-09-16T03:49:46.258Z,7.60
2017-09-16T03:52:14.448Z,8.70
2017-09-16T03:54:41.877Z,6.93
2017-09-16T03:57:09.318Z,8.43
2017-09-16T03:59:36.750Z,8.00
2017-09-16T04:02:15.854Z,6.97
2017-09-16T04:04:43.277Z,5.40
2017-09-16T04:07:10.709Z,5.60
2017-09-16T04:09:38.441Z,6.67
2017-09-16T04:12:05.872Z,6.60
2017-09-16T04:14:34.076Z,5.67
2017-09-16T04:17:01.501Z,7.10
2017-09-16T04:19:29.707Z,6.63
2017-09-16T04:21:57.149Z,5.80
2017-09-16T04:24:24.581Z,6.73
2017-09-16T04:26:52.777Z,6.50
2017-09-16T04:29:20.208Z,5.40
2017-09-16T04:31:48.405Z,4.87
2017-09-16T04:34:15.836Z,6.20
2017-09-16T04:36:43.257Z,6.07
2017-09-16T04:39:10.700Z,6.27
2017-09-16T04:41:38.126Z,5.17
2017-09-16T04:44:06.328Z,6.23
2017-09-16T04:46:33.762Z,5.87
2017-09-16T04:49:01.192Z,5.67
2017-09-16T04:51:28.622Z,7.00
2017-09-16T04:53:56.076Z,7.03
2017-09-16T04:56:23.497Z,6.60
2017-09-16T04:58:50.928Z,6.33
2017-09-16T05:01:19.120Z,6.83
2017-09-16T05:03:46.620Z,8.00
2017-09-16T05:06:14.045Z,6.37
2017-09-16T05:08:41.477Z,6.63
2017-09-16T05:11:09.670Z,6.93
2017-09-16T05:13:37.117Z,6.40
2017-09-16T05:16:05.942Z,6.97
2017-09-16T05:18:33.390Z,6.83
2017-09-16T05:21:00.816Z,8.10
2017-09-16T05:23:30.040Z,6.23
2017-09-16T05:25:58.221Z,8.37
2017-09-16T05:28:25.648Z,5.93
2017-09-16T05:30:53.077Z,6.50
2017-09-16T05:33:20.517Z,5.33
2017-09-16T05:35:47.953Z,5.60
2017-09-16T05:38:15.385Z,6.93
2017-09-16T05:40:42.817Z,7.80
2017-09-16T05:43:10.261Z,7.10
2017-09-16T05:45:37.681Z,8.60
2017-09-16T05:48:05.126Z,6.60
2017-09-16T05:50:32.563Z,8.90
2017-09-16T05:53:00.756Z,8.20
2017-09-16T05:55:28.189Z,8.30
2017-09-16T05:57:56.373Z,7.77
2017-09-16T06:00:23.804Z,8.43
2017-09-16T06:02:52.010Z,8.20
2017-09-16T06:05:19.432Z,7.87
2017-09-16T06:07:47.629Z,11.00
2017-09-16T06:10:15.060Z,10.50
2017-09-16T06:12:42.493Z,9.60
2017-09-16T06:15:09.935Z,7.70
2017-09-16T06:17:37.386Z,7.97
2017-09-16T06:20:04.808Z,8.27
2017-09-16T06:22:34.096Z,8.10
2017-09-16T06:25:02.301Z,7.47
2017-09-16T06:27:29.730Z,7.93
2017-09-16T06:29:57.929Z,7.30
2017-09-16T06:32:25.351Z,7.90
2017-09-16T06:34:52.787Z,7.43
2017-09-16T06:37:20.226Z,8.20
2017-09-16T06:39:48.421Z,8.67
2017-09-16T06:42:15.850Z,9.30
2017-09-16T06:44:43.290Z,12.27
2017-09-16T06:47:10.718Z,9.47
2017-09-16T06:49:38.914Z,9.17
2017-09-16T06:52:06.346Z,9.60
2017-09-16T06:54:33.783Z,9.23
2017-09-16T06:57:01.212Z,13.73
2017-09-16T06:59:28.646Z,10.87
2017-09-16T07:01:56.081Z,12.67
2017-09-16T07:04:24.296Z,12.80
2017-09-16T07:06:51.734Z,12.23
2017-09-16T07:09:19.180Z,13.67
2017-09-16T07:11:47.383Z,15.57
2017-09-16T07:14:14.822Z,13.77
2017-09-16T07:16:42.258Z,11.77
2017-09-16T07:19:10.449Z,13.37
2017-09-16T07:21:37.937Z,13.30
2017-09-16T07:24:05.352Z,11.67
2017-09-16T07:26:33.581Z,12.50
2017-09-16T07:29:01.012Z,15.07
2017-09-16T07:31:28.468Z,11.63
2017-09-16T07:33:55.894Z,12.50
2017-09-16T07:36:24.103Z,11.60
2017-09-16T07:38:51.905Z,13.60
2017-09-16T07:41:19.341Z,13.17
2017-09-16T07:43:46.756Z,13.93
2017-09-16T07:46:20.447Z,13.40
2017-09-16T07:48:48.063Z,11.57
2017-09-16T07:51:15.503Z,13.03
2017-09-16T07:53:42.930Z,12.30
2017-09-16T07:56:11.139Z,12.17
2017-09-16T07:58:38.574Z,11.47
2017-09-16T08:01:06.008Z,11.43
2017-09-16T08:03:34.209Z,12.10
2017-09-16T08:06:01.648Z,10.33
2017-09-16T08:08:29.850Z,10.77
2017-09-16T08:10:57.294Z,10.57
2017-09-16T08:13:24.729Z,9.20
2017-09-16T08:15:52.960Z,8.07
2017-09-16T08:18:20.383Z,8.30
2017-09-16T08:20:47.811Z,8.10
2017-09-16T08:23:16.001Z,7.23
2017-09-16T08:25:43.464Z,7.73
2017-09-16T08:28:11.648Z,7.80
2017-09-16T08:30:39.092Z,8.60
2017-09-16T08:33:06.556Z,8.33
2017-09-16T08:35:34.013Z,8.33
2017-09-16T08:38:01.448Z,8.83
2017-09-16T08:40:29.645Z,8.63
2017-09-16T08:42:57.085Z,9.30
2017-09-16T08:45:25.282Z,9.30
2017-09-16T08:47:52.715Z,9.37
2017-09-16T08:50:20.923Z,9.37
2017-09-16T08:52:48.359Z,9.83
2017-09-16T08:55:15.874Z,10.07
2017-09-16T08:57:43.300Z,9.47
2017-09-16T09:00:10.727Z,8.87
2017-09-16T09:02:38.166Z,9.23
2017-09-16T09:05:05.601Z,10.10
2017-09-16T09:07:33.038Z,9.00
2017-09-16T09:10:00.468Z,8.77
2017-09-16T09:12:27.907Z,8.77
2017-09-16T09:14:56.111Z,8.63
2017-09-16T09:17:23.549Z,8.60
2017-09-16T09:19:51.031Z,7.57
2017-09-16T09:22:18.483Z,7.00
2017-09-16T09:24:45.901Z,6.90
2017-09-16T09:27:14.108Z,6.60
2017-09-16T09:29:41.528Z,7.10
2017-09-16T09:32:09.728Z,7.73
2017-09-16T09:34:37.171Z,6.97
2017-09-16T09:37:05.376Z,6.17
2017-09-16T09:39:32.808Z,6.63
2017-09-16T09:42:00.245Z,6.70
2017-09-16T09:44:28.451Z,7.10
2017-09-16T09:46:55.888Z,7.00
2017-09-16T09:49:24.084Z,7.40
2017-09-16T09:51:54.669Z,6.07
2017-09-16T09:54:22.102Z,6.63
2017-09-16T09:56:49.545Z,6.57
2017-09-16T09:59:16.983Z,6.50
2017-09-16T10:01:44.411Z,6.60
2017-09-16T10:04:12.616Z,6.40
2017-09-16T10:06:40.040Z,5.37
2017-09-16T10:09:08.233Z,6.03
2017-09-16T10:11:35.674Z,5.70
2017-09-16T10:14:03.877Z,6.30
2017-09-16T10:16:31.325Z,8.07
2017-09-16T10:18:58.847Z,6.67
2017-09-16T10:21:26.285Z,7.20
2017-09-16T10:23:53.772Z,7.67
2017-09-16T10:26:21.978Z,7.10
2017-09-16T10:28:49.403Z,6.80
2017-09-16T10:31:16.828Z,6.20
2017-09-16T10:33:44.268Z,6.13
2017-09-16T10:36:11.701Z,5.50
2017-09-16T10:38:39.132Z,5.10
2017-09-16T10:41:07.332Z,4.20
2017-09-16T10:43:34.766Z,6.13
2017-09-16T10:46:02.967Z,4.67
2017-09-16T10:48:30.403Z,5.20
2017-09-16T10:50:58.607Z,4.60
2017-09-16T10:53:26.042Z,5.97
2017-09-16T10:55:54.244Z,3.83
2017-09-16T10:58:21.689Z,3.33
2017-09-16T11:00:49.108Z,3.63
2017-09-16T11:03:16.549Z,3.93
2017-09-16T11:05:43.994Z,4.30
2017-09-16T11:08:11.416Z,5.27
2017-09-16T11:10:38.854Z,4.40
2017-09-16T11:13:07.058Z,4.50
2017-09-16T11:15:34.484Z,3.60
2017-09-16T11:18:02.692Z,4.10
2017-09-16T11:20:30.196Z,4.90
2017-09-16T11:22:57.641Z,4.33
2017-09-16T11:25:25.068Z,3.93
2017-09-16T11:27:52.520Z,3.70
2017-09-16T11:30:19.942Z,3.90
2017-09-16T11:32:48.156Z,4.30
2017-09-16T11:35:15.573Z,3.83
2017-09-16T11:37:43.026Z,6.50
2017-09-16T11:40:11.216Z,4.87
2017-09-16T11:42:38.657Z,4.70
2017-09-16T11:45:06.859Z,4.37
2017-09-16T11:47:34.418Z,4.87
2017-09-16T11:50:01.943Z,3.73
2017-09-16T11:52:29.364Z,3.03
2017-09-16T11:54:56.801Z,4.17
2017-09-16T11:57:24.238Z,3.60
2017-09-16T11:59:51.679Z,3.10
2017-09-16T12:02:19.874Z,2.60
2017-09-16T12:04:47.305Z,1.10
2017-09-16T12:07:15.502Z,1.90
2017-09-16T12:09:42.937Z,1.80
2017-09-16T12:12:11.136Z,1.50
2017-09-16T12:14:38.638Z,2.73
2017-09-16T12:17:06.067Z,1.20
2017-09-16T12:19:33.499Z,1.47
2017-09-16T12:22:00.934Z,1.17
2017-09-16T12:24:28.381Z,1.20
2017-09-16T12:26:55.791Z,2.83
2017-09-16T12:29:23.238Z,2.50
2017-09-16T12:31:50.700Z,1.40
2017-09-16T12:34:18.119Z,1.80
2017-09-16T12:36:46.394Z,1.17
2017-09-16T12:39:13.818Z,1.60
2017-09-16T12:41:41.253Z,1.83
2017-09-16T12:44:08.693Z,1.37
2017-09-16T12:46:36.122Z,1.20
2017-09-16T12:49:03.583Z,1.20
2017-09-16T12:51:31.010Z,1.30
2017-09-16T12:53:58.445Z,1.03
2017-09-16T12:56:25.873Z,0.90
2017-09-16T12:58:53.309Z,1.00
2017-09-16T13:01:21.523Z,1.00
2017-09-16T13:03:48.941Z,1.20
2017-09-16T13:06:17.141Z,0.93
2017-09-16T13:08:44.668Z,0.90
2017-09-16T13:11:12.137Z,1.27
2017-09-16T13:13:39.561Z,0.90
2017-09-16T13:16:06.984Z,1.00
2017-09-16T13:18:34.446Z,1.37
2017-09-16T13:21:01.857Z,0.87
2017-09-16T13:23:30.072Z,1.67
2017-09-16T13:25:57.506Z,2.83
2017-09-16T13:28:24.934Z,1.50
2017-09-16T13:30:52.368Z,1.60
2017-09-16T13:33:20.565Z,1.97
2017-09-16T13:35:48.008Z,1.43
2017-09-16T13:38:15.439Z,1.83
2017-09-16T13:40:42.888Z,1.77
2017-09-16T13:43:10.312Z,1.33
2017-09-16T13:45:38.518Z,0.90
2017-09-16T13:48:05.950Z,0.93
2017-09-16T13:50:33.381Z,1.20
2017-09-16T13:53:00.817Z,1.23
2017-09-16T13:55:28.265Z,1.20
2017-09-16T13:57:55.701Z,1.70
2017-09-16T14:00:23.146Z,1.40
2017-09-16T14:02:50.580Z,1.20
2017-09-16T14:05:18.785Z,1.47
2017-09-16T14:07:46.221Z,1.27
2017-09-16T14:10:13.657Z,1.30
2017-09-16T14:12:41.857Z,1.20
2017-09-16T14:15:09.287Z,2.07
2017-09-16T14:17:36.745Z,1.50
2017-09-16T14:20:04.173Z,1.50
2017-09-16T14:22:31.606Z,1.60
2017-09-16T14:24:59.032Z,1.33
2017-09-16T14:27:27.236Z,1.17
2017-09-16T14:29:54.678Z,1.50
2017-09-16T14:32:22.663Z,1.70
2017-09-16T14:34:50.093Z,1.73
2017-09-16T14:37:18.300Z,1.30
2017-09-16T14:39:45.757Z,1.60
2017-09-16T14:42:13.194Z,1.60
2017-09-16T14:44:40.632Z,1.37
2017-09-16T14:47:08.051Z,1.37
2017-09-16T14:49:35.480Z,1.23
2017-09-16T14:52:02.928Z,1.10
2017-09-16T14:54:30.352Z,1.60
2017-09-16T14:56:58.568Z,2.07
2017-09-16T14:59:25.998Z,2.33
2017-09-16T15:01:54.215Z,1.50
2017-09-16T15:04:21.705Z,1.63
2017-09-16T15:06:49.148Z,2.73
2017-09-16T15:09:16.581Z,1.70
2017-09-16T15:11:44.012Z,2.83
2017-09-16T15:14:11.446Z,3.53
2017-09-16T15:16:39.650Z,2.90
2017-09-16T15:19:07.069Z,2.03
2017-09-16T15:21:35.273Z,3.10
2017-09-16T15:24:02.704Z,5.13
2017-09-16T15:26:30.913Z,5.23
2017-09-16T15:28:58.332Z,4.73
2017-09-16T15:31:26.545Z,2.53
2017-09-16T15:33:53.973Z,2.80
2017-09-16T15:36:22.186Z,2.10
2017-09-16T15:38:49.617Z,2.90
2017-09-16T15:41:17.049Z,2.00
2017-09-16T15:43:44.481Z,2.40
2017-09-16T15:46:11.930Z,2.47
2017-09-16T15:48:39.364Z,2.83
2017-09-16T15:51:06.798Z,2.53
2017-09-16T15:53:34.220Z,2.70
2017-09-16T15:56:01.656Z,2.17
2017-09-16T15:58:29.093Z,2.50
2017-09-16T16:00:56.521Z,2.50
2017-09-16T16:03:24.711Z,2.80
2017-09-16T16:05:52.150Z,2.67
2017-09-16T16:08:20.340Z,2.60
2017-09-16T16:10:47.765Z,3.50
2017-09-16T16:13:15.969Z,2.07
2017-09-16T16:15:44.267Z,3.40
2017-09-16T16:18:11.701Z,2.60
2017-09-16T16:20:39.130Z,2.30
2017-09-16T16:23:06.553Z,3.17
2017-09-16T16:25:33.987Z,5.73
2017-09-16T16:28:01.441Z,8.03
2017-09-16T16:30:28.857Z,7.60
2017-09-16T16:32:57.059Z,6.50
2017-09-16T16:35:24.493Z,2.90
2017-09-16T16:37:52.692Z,2.67
2017-09-16T16:40:20.125Z,3.67
2017-09-16T16:42:48.373Z,3.30
2017-09-16T16:45:15.845Z,3.73
2017-09-16T16:47:43.280Z,4.00
2017-09-16T16:50:10.786Z,4.30
2017-09-16T16:52:38.220Z,3.60
2017-09-16T16:55:05.653Z,3.23
2017-09-16T16:57:33.089Z,3.63
2017-09-16T17:00:00.521Z,3.37
2017-09-16T17:02:27.957Z,3.27
2017-09-16T17:04:56.149Z,3.33
2017-09-16T17:07:23.589Z,2.43
2017-09-16T17:09:51.782Z,2.90
2017-09-16T17:12:19.212Z,2.30
2017-09-16T17:14:47.417Z,3.03
2017-09-16T17:17:14.858Z,3.20
2017-09-16T17:19:43.048Z,2.63
2017-09-16T17:22:10.495Z,3.20
2017-09-16T17:24:38.688Z,2.60
2017-09-16T17:27:06.151Z,3.23
2017-09-16T17:29:33.587Z,2.90
2017-09-16T17:32:01.044Z,3.10
2017-09-16T17:34:29.240Z,2.53
2017-09-16T17:36:56.677Z,2.30
2017-09-16T17:39:24.103Z,3.00
2017-09-16T17:41:51.532Z,2.33
2017-09-16T17:44:18.972Z,2.87
2017-09-16T17:46:46.399Z,2.43
2017-09-16T17:49:13.841Z,4.10
2017-09-16T17:51:42.050Z,3.20
2017-09-16T17:54:09.485Z,2.70
2017-09-16T17:56:37.685Z,3.10
2017-09-16T17:59:05.117Z,2.27
2017-09-16T18:01:32.558Z,2.53
2017-09-16T18:03:59.985Z,2.23
2017-09-16T18:06:27.421Z,2.50
2017-09-16T18:08:54.854Z,2.70
2017-09-16T18:11:22.286Z,2.10
2017-09-16T18:13:50.485Z,2.57
2017-09-16T18:16:17.915Z,3.40
2017-09-16T18:18:46.126Z,2.57
2017-09-16T18:21:13.558Z,2.17
2017-09-16T18:23:41.762Z,2.87
2017-09-16T18:26:09.193Z,2.50
2017-09-16T18:28:37.393Z,3.00
2017-09-16T18:31:04.824Z,2.30
2017-09-16T18:33:32.259Z,2.90
2017-09-16T18:36:00.462Z,3.03
2017-09-16T18:38:27.918Z,2.83
2017-09-16T18:40:55.343Z,2.70
2017-09-16T18:43:22.782Z,3.00
2017-09-16T18:45:50.207Z,2.80
2017-09-16T18:48:17.653Z,3.23
2017-09-16T18:50:45.077Z,3.50
2017-09-16T18:53:13.277Z,3.50
2017-09-16T18:55:40.702Z,3.10
2017-09-16T18:58:08.157Z,3.40
2017-09-16T19:00:35.584Z,3.30
2017-09-16T19:03:03.023Z,4.10
2017-09-16T19:05:30.456Z,4.60
2017-09-16T19:07:57.890Z,4.40
2017-09-16T19:10:25.317Z,5.30
2017-09-16T19:12:52.750Z,4.83
2017-09-16T19:15:20.189Z,4.93
2017-09-16T19:17:47.618Z,5.00
2017-09-16T19:20:15.854Z,4.30
2017-09-16T19:22:43.244Z,4.70
2017-09-16T19:25:10.691Z,5.53
2017-09-16T19:27:38.121Z,4.63
2017-09-16T19:30:05.585Z,4.60
2017-09-16T19:32:33.023Z,5.07
2017-09-16T19:35:00.443Z,4.70
2017-09-16T19:37:28.651Z,5.10
2017-09-16T19:39:56.090Z,4.63
2017-09-16T19:42:23.938Z,5.10
2017-09-16T19:44:52.167Z,5.80
2017-09-16T19:47:19.597Z,6.60
2017-09-16T19:49:47.041Z,5.40
2017-09-16T19:52:16.057Z,4.67
2017-09-16T19:54:43.488Z,4.67
2017-09-16T19:57:10.929Z,4.50
2017-09-16T19:59:38.390Z,4.57
2017-09-16T20:02:06.593Z,4.73
2017-09-16T20:04:34.044Z,5.57
2017-09-16T20:07:02.230Z,4.80
2017-09-16T20:09:29.655Z,5.17
2017-09-16T20:11:57.845Z,5.13
2017-09-16T20:14:25.287Z,5.23
2017-09-16T20:16:53.477Z,4.13
2017-09-16T20:19:20.918Z,5.50
2017-09-16T20:21:48.341Z,4.57
2017-09-16T20:24:15.776Z,5.00
2017-09-16T20:26:44.301Z,4.50
2017-09-16T20:29:11.753Z,6.20
2017-09-16T20:31:39.185Z,6.03
2017-09-16T20:34:06.627Z,6.57
2017-09-16T20:36:34.065Z,5.90
2017-09-16T20:39:01.493Z,7.33
2017-09-16T20:41:29.771Z,7.10
2017-09-16T20:43:57.965Z,6.17
2017-09-16T20:46:25.409Z,5.80
2017-09-16T20:48:53.613Z,5.30
2017-09-16T20:51:21.057Z,5.50
2017-09-16T20:53:48.497Z,5.40
2017-09-16T20:56:16.701Z,6.00
2017-09-16T20:58:44.170Z,5.70
2017-09-16T21:01:11.616Z,5.90
2017-09-16T21:03:39.069Z,6.13
2017-09-16T21:06:06.520Z,6.47
2017-09-16T21:08:33.964Z,6.60
2017-09-16T21:11:02.166Z,5.87
2017-09-16T21:13:29.620Z,5.70
2017-09-16T21:15:57.057Z,5.70
2017-09-16T21:18:24.486Z,5.37
2017-09-16T21:20:51.917Z,6.80
2017-09-16T21:23:19.361Z,7.27
2017-09-16T21:25:46.803Z,7.00
2017-09-16T21:28:14.233Z,6.77
2017-09-16T21:30:41.670Z,6.10
2017-09-16T21:33:09.102Z,5.83
2017-09-16T21:35:37.613Z,6.40
2017-09-16T21:38:05.869Z,6.30
2017-09-16T21:40:33.300Z,6.03
2017-09-16T21:43:00.797Z,6.83
2017-09-16T21:45:28.240Z,7.10
2017-09-16T21:47:55.669Z,5.67
2017-09-16T21:50:23.117Z,6.37
2017-09-16T21:52:50.552Z,6.67
2017-09-16T21:55:18.017Z,5.77
2017-09-16T21:57:46.205Z,5.13
2017-09-16T22:00:13.661Z,5.70
2017-09-16T22:02:41.089Z,4.90
2017-09-16T22:05:09.301Z,4.43
2017-09-16T22:07:36.728Z,6.40
2017-09-16T22:10:04.164Z,4.90
2017-09-16T22:12:32.366Z,5.90
2017-09-16T22:14:59.893Z,5.47
2017-09-16T22:17:27.328Z,5.17
2017-09-16T22:19:54.774Z,5.23
2017-09-16T22:22:22.204Z,4.93
2017-09-16T22:24:49.629Z,6.00
2017-09-16T22:27:17.861Z,6.33
2017-09-16T22:29:45.264Z,5.47
2017-09-16T22:32:13.479Z,5.40
2017-09-16T22:34:40.908Z,6.03
2017-09-16T22:37:08.345Z,5.47
2017-09-16T22:39:36.546Z,5.40
2017-09-16T22:42:03.993Z,4.93
2017-09-16T22:44:31.424Z,4.97
2017-09-16T22:46:58.858Z,5.50
2017-09-16T22:49:26.293Z,5.47
2017-09-16T22:51:53.729Z,5.17
2017-09-16T22:54:21.165Z,5.97
2017-09-16T22:56:49.361Z,5.60
2017-09-16T22:59:16.785Z,5.57
2017-09-16T23:01:44.988Z,6.00
2017-09-16T23:04:12.413Z,5.70
2017-09-16T23:06:39.845Z,5.10
2017-09-16T23:09:07.277Z,4.97
2017-09-16T23:11:34.714Z,6.13
2017-09-16T23:14:02.142Z,6.10
2017-09-16T23:16:30.348Z,4.97
2017-09-16T23:18:57.773Z,6.40
2017-09-16T23:21:25.217Z,6.67
2017-09-16T23:23:52.650Z,5.73
2017-09-16T23:26:20.089Z,5.50
2017-09-16T23:28:47.600Z,5.57
2017-09-16T23:31:15.825Z,4.13
2017-09-16T23:33:43.244Z,5.70
2017-09-16T23:36:11.440Z,5.30
2017-09-16T23:38:38.861Z,4.50
2017-09-16T23:41:06.296Z,4.87
2017-09-16T23:43:33.725Z,5.07
2017-09-16T23:46:01.153Z,5.50
2017-09-16T23:48:28.589Z,4.60
2017-09-16T23:50:56.017Z,4.03
2017-09-16T23:53:23.445Z,4.60
2017-09-16T23:55:50.868Z,4.70
2017-09-16T23:58:19.070Z,4.40
